createdAt,value
2022-10-23T00:01:26.706Z,102182.13
2022-10-23T00:04:04.708Z,102180.98
2022-10-23T00:06:34.115Z,102180.60
2022-10-23T00:09:01.160Z,102180.97
2022-10-23T00:11:30.967Z,102186.16
2022-10-23T00:14:01.396Z,102186.56
2022-10-23T00:16:29.264Z,102186.71
2022-10-23T00:18:56.575Z,102188.08
2022-10-23T00:21:27.940Z,102186.31
2022-10-23T00:23:55.200Z,102185.19
2022-10-23T00:26:22.381Z,102190.80
2022-10-23T00:28:52.226Z,102190.93
2022-10-23T00:31:22.138Z,102187.35
2022-10-23T00:33:51.709Z,102185.76
2022-10-23T00:36:21.834Z,102187.61
2022-10-23T00:38:49.491Z,102190.70
2022-10-23T00:41:29.107Z,102189.27
2022-10-23T00:44:30.798Z,102191.48
2022-10-23T00:46:59.387Z,102192.88
2022-10-23T00:49:28.501Z,102190.33
2022-10-23T00:52:04.926Z,102193.64
2022-10-23T00:54:37.344Z,102194.29
2022-10-23T00:57:07.223Z,102193.02
2022-10-23T00:59:34.825Z,102186.63
2022-10-23T01:02:03.756Z,102185.66
2022-10-23T01:04:32.582Z,102183.48
2022-10-23T01:07:02.381Z,102180.97
2022-10-23T01:09:34.856Z,102175.99
2022-10-23T01:12:26.609Z,102178.80
2022-10-23T01:15:10.488Z,102178.22
2022-10-23T01:18:02.665Z,102178.17
2022-10-23T01:20:46.692Z,102174.70
2022-10-23T01:23:16.632Z,102176.02
2022-10-23T01:25:58.415Z,102172.98
2022-10-23T01:28:34.580Z,102172.49
2022-10-23T01:31:05.208Z,102171.00
2022-10-23T01:34:00.727Z,102174.69
2022-10-23T01:36:32.278Z,102174.38
2022-10-23T01:39:08.953Z,102175.55
2022-10-23T01:41:42.570Z,102176.83
2022-10-23T01:44:15.125Z,102178.33
2022-10-23T01:46:45.353Z,102182.21
2022-10-23T01:49:15.228Z,102183.81
2022-10-23T01:51:51.839Z,102177.09
2022-10-23T01:54:21.408Z,102174.48
2022-10-23T01:56:51.569Z,102171.59
2022-10-23T01:59:46.575Z,102171.62
2022-10-23T02:02:15.644Z,102172.93
2022-10-23T02:04:53.875Z,102175.48
2022-10-23T02:07:21.623Z,102174.63
2022-10-23T02:09:51.041Z,102173.67
2022-10-23T02:12:45.232Z,102170.55
2022-10-23T02:15:22.088Z,102172.41
2022-10-23T02:17:59.087Z,102171.88
2022-10-23T02:20:52.515Z,102172.02
2022-10-23T02:23:57.614Z,102170.68
2022-10-23T02:26:30.086Z,102169.98
2022-10-23T02:29:07.975Z,102166.83
2022-10-23T02:31:38.800Z,102164.86
2022-10-23T02:34:06.061Z,102163.98
2022-10-23T02:36:33.511Z,102166.16
2022-10-23T02:39:01.427Z,102161.54
2022-10-23T02:41:53.616Z,102160.95
2022-10-23T02:44:37.663Z,102159.85
2022-10-23T02:47:30.286Z,102156.54
2022-10-23T02:50:36.833Z,102155.53
2022-10-23T02:53:12.941Z,102146.77
2022-10-23T02:56:06.822Z,102145.65
2022-10-23T02:58:45.441Z,102146.88
2022-10-23T03:01:18.540Z,102143.56
2022-10-23T03:03:58.486Z,102144.88
2022-10-23T03:06:26.655Z,102146.64
2022-10-23T03:08:59.741Z,102144.98
2022-10-23T03:11:29.419Z,102142.63
2022-10-23T03:13:57.876Z,102143.95
2022-10-23T03:16:25.493Z,102147.52
2022-10-23T03:18:54.767Z,102141.35
2022-10-23T03:21:22.356Z,102141.77
2022-10-23T03:23:52.288Z,102139.41
2022-10-23T03:26:24.237Z,102141.80
2022-10-23T03:28:51.179Z,102143.46
2022-10-23T03:31:19.154Z,102146.86
2022-10-23T03:33:46.610Z,102149.33
2022-10-23T03:36:13.552Z,102146.50
2022-10-23T03:38:40.930Z,102147.45
2022-10-23T03:41:08.058Z,102144.10
2022-10-23T03:43:35.002Z,102146.99
2022-10-23T03:46:03.188Z,102147.15
2022-10-23T03:48:32.681Z,102147.11
2022-10-23T03:51:01.327Z,102148.22
2022-10-23T03:53:29.960Z,102149.55
2022-10-23T03:55:56.813Z,102151.13
2022-10-23T03:58:25.153Z,102153.41
2022-10-23T04:00:52.222Z,102153.20
2022-10-23T04:03:19.172Z,102156.91
2022-10-23T04:05:48.235Z,102156.00
2022-10-23T04:08:19.182Z,102155.95
2022-10-23T04:10:52.682Z,102151.84
2022-10-23T04:13:25.669Z,102153.05
2022-10-23T04:15:53.655Z,102151.50
2022-10-23T04:18:20.819Z,102155.48
2022-10-23T04:20:49.823Z,102154.53
2022-10-23T04:23:18.176Z,102156.21
2022-10-23T04:28:15.045Z,102155.52
2022-10-23T04:30:42.811Z,102154.29
2022-10-23T04:33:12.513Z,102153.48
2022-10-23T04:35:39.749Z,102154.77
2022-10-23T04:38:07.102Z,102159.20
2022-10-23T04:40:34.270Z,102157.73
2022-10-23T04:43:01.527Z,102160.65
2022-10-23T04:45:32.309Z,102162.56
2022-10-23T04:47:59.511Z,102161.83
2022-10-23T04:50:26.974Z,102165.12
2022-10-23T04:53:15.312Z,102166.88
2022-10-23T04:56:15.646Z,102167.34
2022-10-23T04:58:52.794Z,102169.91
2022-10-23T05:01:20.020Z,102175.18
2022-10-23T05:03:51.532Z,102173.20
2022-10-23T05:06:18.917Z,102175.05
2022-10-23T05:08:52.195Z,102180.06
2022-10-23T05:11:19.238Z,102179.95
2022-10-23T05:13:49.345Z,102182.08
2022-10-23T05:16:50.085Z,102180.58
2022-10-23T05:19:36.904Z,102183.34
2022-10-23T05:22:05.947Z,102185.52
2022-10-23T05:24:56.592Z,102189.64
2022-10-23T05:27:25.990Z,102190.26
2022-10-23T05:29:55.097Z,102195.00
2022-10-23T05:32:29.824Z,102196.61
2022-10-23T05:35:03.940Z,102200.70
2022-10-23T05:37:32.006Z,102200.66
2022-10-23T05:40:11.799Z,102198.43
2022-10-23T05:42:41.811Z,102203.53
2022-10-23T05:45:11.374Z,102205.41
2022-10-23T05:48:05.758Z,102208.34
2022-10-23T05:51:05.489Z,102213.41
2022-10-23T05:53:57.905Z,102219.13
2022-10-23T05:56:47.902Z,102221.82
2022-10-23T05:59:38.413Z,102225.00
2022-10-23T06:02:21.460Z,102224.92
2022-10-23T06:04:52.386Z,102221.59
2022-10-23T06:07:39.927Z,102227.38
2022-10-23T06:10:09.705Z,102231.90
2022-10-23T06:12:41.358Z,102234.73
2022-10-23T06:15:11.704Z,102242.23
2022-10-23T06:18:02.919Z,102244.77
2022-10-23T06:20:34.573Z,102247.33
2022-10-23T06:23:10.750Z,102247.95
2022-10-23T06:26:15.996Z,102251.88
2022-10-23T06:29:13.325Z,102254.54
2022-10-23T06:31:42.212Z,102254.86
2022-10-23T06:34:15.511Z,102259.34
2022-10-23T06:36:42.965Z,102258.91
2022-10-23T06:39:42.472Z,102265.61
2022-10-23T06:42:30.451Z,102271.69
2022-10-23T06:45:04.767Z,102274.35
2022-10-23T06:47:54.462Z,102277.07
2022-10-23T06:50:41.565Z,102279.46
2022-10-23T06:53:13.903Z,102280.91
2022-10-23T06:55:50.068Z,102283.13
2022-10-23T06:58:24.173Z,102284.45
2022-10-23T07:01:03.162Z,102292.05
2022-10-23T07:03:56.362Z,102295.13
2022-10-23T07:06:25.969Z,102301.52
2022-10-23T07:08:53.676Z,102302.05
2022-10-23T07:11:39.740Z,102306.00
2022-10-23T07:14:07.540Z,102305.89
2022-10-23T07:16:41.471Z,102305.56
2022-10-23T07:19:09.265Z,102308.86
2022-10-23T07:21:41.942Z,102313.27
2022-10-23T07:24:21.785Z,102313.96
2022-10-23T07:29:26.118Z,102322.00
2022-10-23T07:31:53.376Z,102325.08
2022-10-23T07:34:39.375Z,102326.98
2022-10-23T07:37:31.472Z,102329.27
2022-10-23T07:40:01.626Z,102329.46
2022-10-23T07:42:33.186Z,102329.68
2022-10-23T07:45:01.051Z,102328.92
2022-10-23T07:47:33.155Z,102331.16
2022-10-23T07:50:00.676Z,102335.57
2022-10-23T07:52:33.468Z,102335.92
2022-10-23T07:55:14.922Z,102335.23
2022-10-23T07:57:55.305Z,102331.72
2022-10-23T08:00:42.702Z,102332.80
2022-10-23T08:03:23.298Z,102330.61
2022-10-23T08:05:52.588Z,102331.77
2022-10-23T08:08:22.916Z,102333.19
2022-10-23T08:10:52.643Z,102336.66
2022-10-23T08:13:25.537Z,102338.55
2022-10-23T08:15:58.940Z,102338.38
2022-10-23T08:18:51.436Z,102340.89
2022-10-23T08:21:18.604Z,102338.44
2022-10-23T08:23:47.664Z,102340.30
2022-10-23T08:26:15.589Z,102345.24
2022-10-23T08:28:44.998Z,102346.09
2022-10-23T08:31:15.090Z,102344.06
2022-10-23T08:33:51.481Z,102344.21
2022-10-23T08:36:26.468Z,102340.33
2022-10-23T08:38:55.895Z,102340.27
2022-10-23T08:41:36.464Z,102339.94
2022-10-23T08:44:33.614Z,102338.29
2022-10-23T08:47:15.929Z,102341.96
2022-10-23T08:50:46.811Z,102344.40
2022-10-23T08:53:41.869Z,102341.25
2022-10-23T08:56:21.608Z,102339.48
2022-10-23T08:59:07.509Z,102337.60
2022-10-23T09:01:42.438Z,102337.28
2022-10-23T09:04:15.153Z,102339.94
2022-10-23T09:07:13.286Z,102341.87
2022-10-23T09:10:12.391Z,102344.06
2022-10-23T09:12:40.289Z,102342.30
2022-10-23T09:15:36.297Z,102344.70
2022-10-23T09:18:13.962Z,102342.27
2022-10-23T09:20:44.716Z,102342.96
2022-10-23T09:23:21.189Z,102342.93
2022-10-23T09:25:56.445Z,102339.41
2022-10-23T09:28:31.667Z,102338.55
2022-10-23T09:31:12.254Z,102335.09
2022-10-23T09:33:42.754Z,102332.20
2022-10-23T09:36:18.021Z,102329.60
2022-10-23T09:38:49.934Z,102329.64
2022-10-23T09:41:22.144Z,102327.20
2022-10-23T09:44:07.697Z,102324.92
2022-10-23T09:46:44.348Z,102329.27
2022-10-23T09:49:24.139Z,102322.89
2022-10-23T09:52:12.698Z,102324.15
2022-10-23T09:54:46.971Z,102324.03
2022-10-23T09:57:32.999Z,102323.52
2022-10-23T10:00:05.269Z,102326.83
2022-10-23T10:02:39.175Z,102322.45
2022-10-23T10:05:33.898Z,102321.98
2022-10-23T10:08:10.767Z,102320.91
2022-10-23T10:10:43.627Z,102324.10
2022-10-23T10:13:34.363Z,102323.55
2022-10-23T10:16:29.608Z,102322.76
2022-10-23T10:19:13.438Z,102320.46
2022-10-23T10:21:40.431Z,102326.38
2022-10-23T10:24:43.842Z,102324.62
2022-10-23T10:27:40.248Z,102324.08
2022-10-23T10:30:21.565Z,102316.67
2022-10-23T10:33:24.473Z,102313.74
2022-10-23T10:36:00.692Z,102316.02
2022-10-23T10:38:45.480Z,102310.95
2022-10-23T10:41:54.462Z,102303.77
2022-10-23T10:45:02.263Z,102301.21
2022-10-23T10:47:55.947Z,102294.19
2022-10-23T10:50:36.082Z,102291.27
2022-10-23T10:53:54.204Z,102290.64
2022-10-23T10:56:28.297Z,102285.15
2022-10-23T10:58:59.831Z,102286.02
2022-10-23T11:01:43.578Z,102278.23
2022-10-23T11:05:06.955Z,102271.46
2022-10-23T11:07:55.541Z,102265.52
2022-10-23T11:10:26.805Z,102262.64
2022-10-23T11:12:54.088Z,102258.27
2022-10-23T11:15:40.046Z,102257.89
2022-10-23T11:18:15.329Z,102253.80
2022-10-23T11:20:53.977Z,102252.84
2022-10-23T11:23:44.446Z,102249.97
2022-10-23T11:26:19.782Z,102247.04
2022-10-23T11:29:22.213Z,102248.33
2022-10-23T11:32:40.253Z,102245.34
2022-10-23T11:35:31.640Z,102242.89
2022-10-23T11:38:14.751Z,102239.33
2022-10-23T11:40:54.012Z,102233.20
2022-10-23T11:43:58.507Z,102232.45
2022-10-23T11:46:28.207Z,102227.48
2022-10-23T11:48:59.158Z,102223.52
2022-10-23T11:51:40.996Z,102216.05
2022-10-23T11:54:18.595Z,102215.15
2022-10-23T11:57:13.854Z,102211.80
2022-10-23T11:59:50.136Z,102208.93
2022-10-23T12:02:38.985Z,102212.83
2022-10-23T12:05:10.223Z,102212.18
2022-10-23T12:07:42.058Z,102206.48
2022-10-23T12:10:43.448Z,102206.59
2022-10-23T12:13:31.608Z,102204.04
2022-10-23T12:16:00.883Z,102202.70
2022-10-23T12:18:30.184Z,102203.92
2022-10-23T12:21:05.728Z,102197.17
2022-10-23T12:24:03.960Z,102193.85
2022-10-23T12:26:55.525Z,102193.23
2022-10-23T12:29:44.827Z,102187.58
2022-10-23T12:32:27.305Z,102186.03
2022-10-23T12:35:23.637Z,102183.96
2022-10-23T12:38:33.818Z,102180.61
2022-10-23T12:41:27.646Z,102173.15
2022-10-23T12:43:59.321Z,102169.38
2022-10-23T12:46:55.054Z,102170.90
2022-10-23T12:49:25.276Z,102165.27
2022-10-23T12:52:17.084Z,102159.80
2022-10-23T12:54:44.493Z,102161.98
2022-10-23T12:57:27.242Z,102161.26
2022-10-23T13:00:02.532Z,102158.14
2022-10-23T13:02:32.733Z,102155.84
2022-10-23T13:05:08.557Z,102149.88
2022-10-23T13:07:45.727Z,102152.23
2022-10-23T13:10:23.149Z,102150.36
2022-10-23T13:13:06.515Z,102146.73
2022-10-23T13:15:47.478Z,102146.61
2022-10-23T13:18:17.294Z,102142.63
2022-10-23T13:20:58.949Z,102141.48
2022-10-23T13:23:32.586Z,102135.56
2022-10-23T13:26:02.874Z,102136.48
2022-10-23T13:28:34.498Z,102139.95
2022-10-23T13:31:10.825Z,102136.96
2022-10-23T13:33:54.883Z,102133.89
2022-10-23T13:36:24.647Z,102133.77
2022-10-23T13:39:11.452Z,102127.56
2022-10-23T13:41:44.625Z,102128.84
2022-10-23T13:44:14.603Z,102129.16
2022-10-23T13:46:45.051Z,102127.66
2022-10-23T13:49:12.786Z,102125.54
2022-10-23T13:51:48.978Z,102124.73
2022-10-23T13:54:23.243Z,102127.88
2022-10-23T13:56:54.457Z,102125.98
2022-10-23T13:59:22.288Z,102123.53
2022-10-23T14:01:51.668Z,102120.55
2022-10-23T14:04:22.724Z,102125.77
2022-10-23T14:06:50.248Z,102123.33
2022-10-23T14:09:18.975Z,102121.58
2022-10-23T14:11:48.074Z,102123.72
2022-10-23T14:14:15.952Z,102124.41
2022-10-23T14:16:43.190Z,102127.08
2022-10-23T14:19:12.082Z,102123.87
2022-10-23T14:21:39.224Z,102125.89
2022-10-23T14:24:06.781Z,102122.16
2022-10-23T14:26:35.487Z,102127.05
2022-10-23T14:29:06.942Z,102125.66
2022-10-23T14:31:39.306Z,102132.16
2022-10-23T14:34:07.886Z,102128.91
2022-10-23T14:36:49.404Z,102126.81
2022-10-23T14:39:18.664Z,102129.02
2022-10-23T14:41:45.644Z,102129.54
2022-10-23T14:44:13.381Z,102132.66
2022-10-23T14:46:49.436Z,102129.06
2022-10-23T14:49:16.380Z,102127.63
2022-10-23T14:51:46.500Z,102125.02
2022-10-23T14:54:14.053Z,102125.45
2022-10-23T14:56:41.411Z,102124.31
2022-10-23T14:59:10.843Z,102123.15
2022-10-23T15:01:48.185Z,102124.87
2022-10-23T15:04:24.277Z,102126.84
2022-10-23T15:06:51.673Z,102124.77
2022-10-23T15:09:21.216Z,102125.77
2022-10-23T15:11:48.920Z,102123.64
2022-10-23T15:14:15.941Z,102125.08
2022-10-23T15:16:43.013Z,102124.44
2022-10-23T15:19:18.503Z,102126.77
2022-10-23T15:21:47.547Z,102125.40
2022-10-23T15:24:16.476Z,102127.42
2022-10-23T15:26:44.612Z,102127.88
2022-10-23T15:29:12.990Z,102130.16
2022-10-23T15:31:42.825Z,102130.19
2022-10-23T15:34:12.674Z,102131.84
2022-10-23T15:36:40.462Z,102134.29
2022-10-23T15:39:17.116Z,102131.98
2022-10-23T15:41:45.102Z,102131.61
2022-10-23T15:44:17.178Z,102132.79
2022-10-23T15:46:44.727Z,102132.73
2022-10-23T15:49:12.954Z,102135.70
2022-10-23T15:51:51.493Z,102138.64
2022-10-23T15:54:20.537Z,102135.98
2022-10-23T15:56:51.242Z,102138.21
2022-10-23T15:59:20.303Z,102137.10
2022-10-23T16:01:47.797Z,102137.41
2022-10-23T16:04:17.376Z,102138.52
2022-10-23T16:06:46.146Z,102138.57
2022-10-23T16:09:13.875Z,102140.16
2022-10-23T16:11:43.686Z,102142.62
2022-10-23T16:14:16.723Z,102141.71
2022-10-23T16:16:45.145Z,102142.45
2022-10-23T16:19:13.247Z,102143.30
2022-10-23T16:21:41.086Z,102147.77
2022-10-23T16:24:10.543Z,102144.57
2022-10-23T16:26:40.751Z,102144.20
2022-10-23T16:29:12.805Z,102145.67
2022-10-23T16:31:39.816Z,102140.98
2022-10-23T16:34:07.272Z,102144.88
2022-10-23T16:36:35.047Z,102150.61
2022-10-23T16:39:40.799Z,102152.13
2022-10-23T16:42:41.127Z,102159.06
2022-10-23T16:45:12.982Z,102160.94
2022-10-23T16:47:40.892Z,102160.94
2022-10-23T16:50:09.022Z,102162.63
2022-10-23T16:52:36.380Z,102165.11
2022-10-23T16:55:03.940Z,102166.70
2022-10-23T16:57:30.987Z,102168.46
2022-10-23T16:59:58.136Z,102174.14
2022-10-23T17:02:28.118Z,102171.32
2022-10-23T17:04:55.619Z,102173.65
2022-10-23T17:07:24.412Z,102175.41
2022-10-23T17:09:51.661Z,102175.77
2022-10-23T17:12:18.632Z,102178.69
2022-10-23T17:14:45.961Z,102179.05
2022-10-23T17:17:14.123Z,102180.96
2022-10-23T17:19:46.071Z,102183.89
2022-10-23T17:22:15.188Z,102191.16
2022-10-23T17:24:45.335Z,102191.27
2022-10-23T17:27:14.711Z,102194.52
2022-10-23T17:29:41.654Z,102199.95
2022-10-23T17:32:10.389Z,102203.96
2022-10-23T17:34:38.744Z,102202.89
2022-10-23T17:37:05.765Z,102203.27
2022-10-23T17:39:33.955Z,102207.57
2022-10-23T17:42:01.409Z,102210.19
2022-10-23T17:44:29.673Z,102213.64
2022-10-23T17:46:56.831Z,102214.82
2022-10-23T17:49:27.257Z,102218.95
2022-10-23T17:51:57.992Z,102216.34
2022-10-23T17:54:26.880Z,102213.29
2022-10-23T17:56:54.248Z,102210.19
2022-10-23T17:59:22.514Z,102206.31
2022-10-23T18:01:51.063Z,102203.52
2022-10-23T18:04:20.318Z,102206.34
2022-10-23T18:06:54.524Z,102207.66
2022-10-23T18:09:23.406Z,102210.77
2022-10-23T18:11:50.795Z,102212.34
2022-10-23T18:14:19.740Z,102212.98
2022-10-23T18:16:47.616Z,102210.86
2022-10-23T18:19:18.767Z,102212.26
2022-10-23T18:21:48.061Z,102210.17
2022-10-23T18:24:17.197Z,102211.89
2022-10-23T18:26:44.730Z,102210.34
2022-10-23T18:29:14.220Z,102209.59
2022-10-23T18:31:42.316Z,102208.42
2022-10-23T18:34:16.948Z,102208.95
2022-10-23T18:36:44.472Z,102209.90
2022-10-23T18:39:15.252Z,102204.30
2022-10-23T18:41:45.156Z,102204.41
2022-10-23T18:44:20.618Z,102205.25
2022-10-23T18:46:48.766Z,102203.85
2022-10-23T18:49:18.354Z,102204.33
2022-10-23T18:51:48.272Z,102202.51
2022-10-23T18:54:21.040Z,102200.44
2022-10-23T18:56:49.431Z,102199.88
2022-10-23T18:59:19.593Z,102197.29
2022-10-23T19:01:46.736Z,102196.66
2022-10-23T19:04:19.214Z,102199.56
2022-10-23T19:06:48.082Z,102200.63
2022-10-23T19:09:16.041Z,102202.23
2022-10-23T19:11:45.394Z,102207.02
2022-10-23T19:14:13.604Z,102203.14
2022-10-23T19:16:55.201Z,102203.73
2022-10-23T19:19:27.261Z,102204.38
2022-10-23T19:21:57.083Z,102206.35
2022-10-23T19:24:34.328Z,102203.52
2022-10-23T19:27:02.846Z,102202.61
2022-10-23T19:29:33.429Z,102203.45
2022-10-23T19:32:00.844Z,102208.36
2022-10-23T19:34:30.489Z,102210.75
2022-10-23T19:36:59.878Z,102215.48
2022-10-23T19:39:28.973Z,102215.46
2022-10-23T19:42:01.046Z,102213.55
2022-10-23T19:44:28.258Z,102211.69
2022-10-23T19:46:55.733Z,102212.81
2022-10-23T19:49:24.060Z,102214.02
2022-10-23T19:51:52.675Z,102218.45
2022-10-23T19:54:21.007Z,102221.09
2022-10-23T19:56:49.140Z,102220.52
2022-10-23T19:59:19.346Z,102222.11
2022-10-23T20:01:48.211Z,102223.80
2022-10-23T20:04:19.281Z,102225.04
2022-10-23T20:06:49.601Z,102226.98
2022-10-23T20:09:21.161Z,102227.88
2022-10-23T20:11:49.643Z,102223.56
2022-10-23T20:14:20.185Z,102226.23
2022-10-23T20:16:52.163Z,102227.67
2022-10-23T20:19:24.718Z,102224.48
2022-10-23T20:21:52.220Z,102224.78
2022-10-23T20:24:20.750Z,102222.64
2022-10-23T20:26:54.382Z,102224.73
2022-10-23T20:29:23.142Z,102225.73
2022-10-23T20:31:52.668Z,102223.64
2022-10-23T20:34:22.351Z,102224.60
2022-10-23T20:36:49.982Z,102228.98
2022-10-23T20:39:25.635Z,102225.83
2022-10-23T20:41:55.532Z,102227.00
2022-10-23T20:44:24.186Z,102228.84
2022-10-23T20:46:53.205Z,102229.10
2022-10-23T20:49:21.058Z,102229.86
2022-10-23T20:51:55.901Z,102233.88
2022-10-23T20:54:29.066Z,102230.04
2022-10-23T20:56:57.695Z,102232.33
2022-10-23T20:59:25.091Z,102231.05
2022-10-23T21:01:55.592Z,102235.42
2022-10-23T21:04:28.417Z,102229.61
2022-10-23T21:07:14.110Z,102231.27
2022-10-23T21:09:41.233Z,102231.47
2022-10-23T21:12:09.248Z,102231.59
2022-10-23T21:14:38.202Z,102233.71
2022-10-23T21:17:05.721Z,102232.96
2022-10-23T21:19:32.699Z,102232.64
2022-10-23T21:22:00.367Z,102234.23
2022-10-23T21:24:27.723Z,102235.77
2022-10-23T21:26:55.799Z,102240.29
2022-10-23T21:29:22.657Z,102236.98
2022-10-23T21:31:55.503Z,102238.00
2022-10-23T21:34:27.253Z,102241.34
2022-10-23T21:37:11.777Z,102238.42
2022-10-23T21:39:41.273Z,102240.45
2022-10-23T21:42:09.237Z,102237.73
2022-10-23T21:44:36.829Z,102232.89
2022-10-23T21:47:03.869Z,102230.76
2022-10-23T21:49:32.947Z,102231.81
2022-10-23T21:52:00.086Z,102233.29
2022-10-23T21:54:27.415Z,102234.52
2022-10-23T21:56:55.075Z,102234.02
2022-10-23T21:59:25.901Z,102234.75
2022-10-23T22:01:55.566Z,102234.55
2022-10-23T22:04:24.447Z,102234.79
2022-10-23T22:06:51.458Z,102238.56
2022-10-23T22:09:20.255Z,102236.96
2022-10-23T22:11:49.656Z,102236.89
2022-10-23T22:14:18.923Z,102233.91
2022-10-23T22:16:46.507Z,102233.86
2022-10-23T22:19:15.707Z,102233.88
2022-10-23T22:21:43.165Z,102230.27
2022-10-23T22:24:10.929Z,102229.79
2022-10-23T22:26:41.489Z,102228.67
2022-10-23T22:29:11.911Z,102226.96
2022-10-23T22:31:43.005Z,102225.31
2022-10-23T22:34:25.347Z,102226.91
2022-10-23T22:37:01.395Z,102223.34
2022-10-23T22:39:28.443Z,102223.29
2022-10-23T22:41:55.496Z,102220.98
2022-10-23T22:44:22.953Z,102219.05
2022-10-23T22:46:50.514Z,102211.39
2022-10-23T22:49:18.100Z,102209.40
2022-10-23T22:51:47.508Z,102209.45
2022-10-23T22:54:15.452Z,102208.43
2022-10-23T22:56:42.804Z,102211.30
2022-10-23T22:59:10.062Z,102214.12
2022-10-23T23:01:45.608Z,102209.90
2022-10-23T23:07:11.030Z,102205.31
2022-10-23T23:09:40.234Z,102201.80
2022-10-23T23:12:10.875Z,102205.16
2022-10-23T23:14:39.245Z,102204.73
2022-10-23T23:17:07.931Z,102201.85
2022-10-23T23:19:35.846Z,102199.52
2022-10-23T23:22:03.357Z,102201.22
2022-10-23T23:24:30.817Z,102201.05
2022-10-23T23:26:58.170Z,102203.43
2022-10-23T23:29:25.206Z,102197.71
2022-10-23T23:31:52.151Z,102196.70
2022-10-23T23:34:19.355Z,102193.39
2022-10-23T23:36:49.766Z,102195.05
2022-10-23T23:39:17.188Z,102193.06
2022-10-23T23:41:49.459Z,102194.85
2022-10-23T23:44:16.405Z,102187.50
2022-10-23T23:46:43.350Z,102189.84
2022-10-23T23:49:10.510Z,102191.82
2022-10-23T23:51:37.942Z,102189.88
2022-10-23T23:54:05.001Z,102194.84
2022-10-23T23:56:32.260Z,102192.19
2022-10-23T23:58:59.128Z,102190.85
